sensor_id;sensor_type;location;lat;lon;timestamp;pressure;altitude;pressure_sealevel;temperature;humidity
10135;BME280;5107;48.850;8.924;2023-04-08T00:01:05;97055.16;;;20.99;50.79
10135;BME280;5107;48.850;8.924;2023-04-08T00:03:31;97067.72;;;20.99;50.75
10135;BME280;5107;48.850;8.924;2023-04-08T00:05:57;97065.25;;;20.97;50.81
10135;BME280;5107;48.850;8.924;2023-04-08T00:08:22;97059.91;;;20.97;51.02
10135;BME280;5107;48.850;8.924;2023-04-08T00:10:48;97058.06;;;20.98;50.92
10135;BME280;5107;48.850;8.924;2023-04-08T00:13:14;97067.94;;;20.97;51.02
10135;BME280;5107;48.850;8.924;2023-04-08T00:15:41;97072.69;;;20.95;50.94
10135;BME280;5107;48.850;8.924;2023-04-08T00:18:06;97067.34;;;20.95;50.78
10135;BME280;5107;48.850;8.924;2023-04-08T00:20:33;97072.69;;;20.95;50.88
10135;BME280;5107;48.850;8.924;2023-04-08T00:22:58;97074.56;;;20.95;50.89
10135;BME280;5107;48.850;8.924;2023-04-08T00:25:24;97069.19;;;20.95;50.88
10135;BME280;5107;48.850;8.924;2023-04-08T00:27:50;97065.69;;;20.94;51.14
10135;BME280;5107;48.850;8.924;2023-04-08T00:30:16;97071.28;;;20.93;50.64
10135;BME280;5107;48.850;8.924;2023-04-08T00:32:41;97071.88;;;20.95;50.78
10135;BME280;5107;48.850;8.924;2023-04-08T00:35:08;97070.22;;;20.94;50.81
10135;BME280;5107;48.850;8.924;2023-04-08T00:37:34;97069.66;;;20.92;50.87
10135;BME280;5107;48.850;8.924;2023-04-08T00:39:59;97064.88;;;20.94;50.88
10135;BME280;5107;48.850;8.924;2023-04-08T00:42:25;97061.38;;;20.93;50.94
10135;BME280;5107;48.850;8.924;2023-04-08T00:44:51;97064.88;;;20.94;50.69
10135;BME280;5107;48.850;8.924;2023-04-08T00:47:17;97074.31;;;20.96;50.93
10135;BME280;5107;48.850;8.924;2023-04-08T00:49:44;97070.22;;;20.94;50.83
10135;BME280;5107;48.850;8.924;2023-04-08T00:52:10;97072.34;;;20.92;50.72
10135;BME280;5107;48.850;8.924;2023-04-08T00:54:37;97067.81;;;20.92;50.86
10135;BME280;5107;48.850;8.924;2023-04-08T00:57:04;97073.94;;;20.93;50.82
10135;BME280;5107;48.850;8.924;2023-04-08T00:59:30;97077.69;;;20.92;50.85
10135;BME280;5107;48.850;8.924;2023-04-08T01:05:06;97073.38;;;20.91;50.73
10135;BME280;5107;48.850;8.924;2023-04-08T01:07:46;97070.31;;;20.87;50.99
10135;BME280;5107;48.850;8.924;2023-04-08T01:13:03;97073.59;;;20.89;50.90
10135;BME280;5107;48.850;8.924;2023-04-08T01:15:30;97068.47;;;20.88;51.04
10135;BME280;5107;48.850;8.924;2023-04-08T01:17:58;97068.47;;;20.88;50.86
10135;BME280;5107;48.850;8.924;2023-04-08T01:20:26;97069.50;;;20.87;50.91
10135;BME280;5107;48.850;8.924;2023-04-08T01:23:30;97075.91;;;20.86;51.08
10135;BME280;5107;48.850;8.924;2023-04-08T01:25:57;97075.91;;;20.86;50.89
10135;BME280;5107;48.850;8.924;2023-04-08T01:28:28;97074.03;;;20.86;51.04
10135;BME280;5107;48.850;8.924;2023-04-08T01:30:57;97071.38;;;20.86;50.81
10135;BME280;5107;48.850;8.924;2023-04-08T01:33:24;97072.41;;;20.85;50.78
10135;BME280;5107;48.850;8.924;2023-04-08T01:35:51;97071.59;;;20.84;51.00
10135;BME280;5107;48.850;8.924;2023-04-08T01:38:19;97072.19;;;20.87;50.73
10135;BME280;5107;48.850;8.924;2023-04-08T01:40:47;97072.19;;;20.87;50.85
10135;BME280;5107;48.850;8.924;2023-04-08T01:43:16;97068.91;;;20.84;50.88
10135;BME280;5107;48.850;8.924;2023-04-08T01:45:47;97070.56;;;20.86;50.90
10135;BME280;5107;48.850;8.924;2023-04-08T01:48:14;97067.88;;;20.86;50.99
10135;BME280;5107;48.850;8.924;2023-04-08T01:50:44;97068.34;;;20.82;50.86
10135;BME280;5107;48.850;8.924;2023-04-08T01:53:11;97065.19;;;20.86;50.93
10135;BME280;5107;48.850;8.924;2023-04-08T01:55:42;97070.56;;;20.86;50.72
10135;BME280;5107;48.850;8.924;2023-04-08T01:58:12;97066.84;;;20.87;50.81
10135;BME280;5107;48.850;8.924;2023-04-08T02:00:42;97067.22;;;20.90;50.56
10135;BME280;5107;48.850;8.924;2023-04-08T02:03:11;97064.88;;;20.94;50.67
10135;BME280;5107;48.850;8.924;2023-04-08T02:05:41;97067.56;;;20.94;50.62
10135;BME280;5107;48.850;8.924;2023-04-08T02:08:07;97060.34;;;20.94;50.40
10135;BME280;5107;48.850;8.924;2023-04-08T02:10:33;97070.00;;;20.95;50.72
10135;BME280;5107;48.850;8.924;2023-04-08T02:12:58;97067.56;;;20.94;50.44
10135;BME280;5107;48.850;8.924;2023-04-08T02:15:27;97065.47;;;20.96;50.61
10135;BME280;5107;48.850;8.924;2023-04-08T02:17:56;97066.53;;;20.95;51.11
10135;BME280;5107;48.850;8.924;2023-04-08T02:20:40;97065.91;;;20.93;50.96
10135;BME280;5107;48.850;8.924;2023-04-08T02:23:20;97064.06;;;20.93;50.90
10135;BME280;5107;48.850;8.924;2023-04-08T02:25:47;97064.88;;;20.94;50.65
10135;BME280;5107;48.850;8.924;2023-04-08T02:28:15;97061.88;;;20.90;53.41
10135;BME280;5107;48.850;8.924;2023-04-08T02:30:47;97060.22;;;20.89;54.45
10135;BME280;5107;48.850;8.924;2023-04-08T02:33:13;97063.94;;;20.88;54.27
10135;BME280;5107;48.850;8.924;2023-04-08T02:35:40;97061.38;;;20.93;54.28
10135;BME280;5107;48.850;8.924;2023-04-08T02:38:08;97061.16;;;20.95;54.36
10135;BME280;5107;48.850;8.924;2023-04-08T02:40:34;97065.47;;;20.96;54.14
10135;BME280;5107;48.850;8.924;2023-04-08T02:43:00;97061.75;;;20.97;54.13
10135;BME280;5107;48.850;8.924;2023-04-08T02:45:42;97067.13;;;20.97;53.73
10135;BME280;5107;48.850;8.924;2023-04-08T02:48:08;97070.41;;;20.99;53.53
10135;BME280;5107;48.850;8.924;2023-04-08T02:50:35;97070.41;;;20.99;53.53
10135;BME280;5107;48.850;8.924;2023-04-08T02:53:01;97076.78;;;20.98;53.40
10135;BME280;5107;48.850;8.924;2023-04-08T02:55:27;97066.91;;;20.98;53.53
10135;BME280;5107;48.850;8.924;2023-04-08T02:57:52;97067.13;;;20.97;53.16
10135;BME280;5107;48.850;8.924;2023-04-08T03:00:18;97064.66;;;20.95;53.18
10135;BME280;5107;48.850;8.924;2023-04-08T03:02:44;97074.56;;;20.95;53.38
10135;BME280;5107;48.850;8.924;2023-04-08T03:05:10;97074.31;;;20.96;53.03
10135;BME280;5107;48.850;8.924;2023-04-08T03:07:36;97066.53;;;20.95;53.17
10135;BME280;5107;48.850;8.924;2023-04-08T03:10:02;97073.72;;;20.94;53.05
10135;BME280;5107;48.850;8.924;2023-04-08T03:12:28;97072.69;;;20.95;52.75
10135;BME280;5107;48.850;8.924;2023-04-08T03:14:54;97075.38;;;20.95;52.66
10135;BME280;5107;48.850;8.924;2023-04-08T03:17:20;97070.84;;;20.96;52.73
10135;BME280;5107;48.850;8.924;2023-04-08T03:19:46;97074.31;;;20.96;52.74
10135;BME280;5107;48.850;8.924;2023-04-08T03:22:12;97072.91;;;20.94;52.56
10135;BME280;5107;48.850;8.924;2023-04-08T03:24:38;97068.59;;;20.93;52.86
10135;BME280;5107;48.850;8.924;2023-04-08T03:27:04;97071.66;;;20.96;52.70
10135;BME280;5107;48.850;8.924;2023-04-08T03:29:30;97072.69;;;20.95;52.87
10135;BME280;5107;48.850;8.924;2023-04-08T03:31:56;97077.22;;;20.95;52.73
10135;BME280;5107;48.850;8.924;2023-04-08T03:34:22;97073.16;;;20.92;52.56
10135;BME280;5107;48.850;8.924;2023-04-08T03:36:47;97078.25;;;20.94;52.67
10135;BME280;5107;48.850;8.924;2023-04-08T03:39:13;97079.91;;;20.95;52.99
10135;BME280;5107;48.850;8.924;2023-04-08T03:41:39;97081.19;;;20.92;52.63
10135;BME280;5107;48.850;8.924;2023-04-08T03:44:05;97080.38;;;20.92;52.93
10135;BME280;5107;48.850;8.924;2023-04-08T03:46:30;97074.56;;;20.95;52.60
10135;BME280;5107;48.850;8.924;2023-04-08T03:48:56;97078.03;;;20.95;52.75
10135;BME280;5107;48.850;8.924;2023-04-08T03:51:22;97073.50;;;20.96;52.91
10135;BME280;5107;48.850;8.924;2023-04-08T03:53:48;97076.63;;;20.93;52.78
10135;BME280;5107;48.850;8.924;2023-04-08T03:56:14;97074.56;;;20.95;52.93
10135;BME280;5107;48.850;8.924;2023-04-08T03:58:40;97075.84;;;20.92;52.59
10135;BME280;5107;48.850;8.924;2023-04-08T04:01:06;97075.84;;;20.92;52.64
10135;BME280;5107;48.850;8.924;2023-04-08T04:03:32;97073.72;;;20.94;53.05
10135;BME280;5107;48.850;8.924;2023-04-08T04:05:57;97073.72;;;20.94;52.78
10135;BME280;5107;48.850;8.924;2023-04-08T04:08:23;97072.91;;;20.94;52.75
10135;BME280;5107;48.850;8.924;2023-04-08T04:10:49;97078.25;;;20.94;52.53
10135;BME280;5107;48.850;8.924;2023-04-08T04:13:16;97080.94;;;20.94;52.84
10135;BME280;5107;48.850;8.924;2023-04-08T04:15:42;97072.91;;;20.94;52.63
10135;BME280;5107;48.850;8.924;2023-04-08T04:18:10;97081.97;;;20.93;52.81
10135;BME280;5107;48.850;8.924;2023-04-08T04:20:40;97080.94;;;20.94;52.61
10135;BME280;5107;48.850;8.924;2023-04-08T04:23:07;97075.03;;;20.92;52.55
10135;BME280;5107;48.850;8.924;2023-04-08T04:25:33;97081.41;;;20.91;52.26
10135;BME280;5107;48.850;8.924;2023-04-08T04:27:59;97089.44;;;20.91;51.98
10135;BME280;5107;48.850;8.924;2023-04-08T04:30:26;97081.63;;;20.89;51.49
10135;BME280;5107;48.850;8.924;2023-04-08T04:32:52;97086.16;;;20.89;51.05
10135;BME280;5107;48.850;8.924;2023-04-08T04:35:18;97081.03;;;20.87;50.92
10135;BME280;5107;48.850;8.924;2023-04-08T04:37:43;97085.56;;;20.87;50.91
10135;BME280;5107;48.850;8.924;2023-04-08T04:40:09;97092.56;;;20.88;50.70
10135;BME280;5107;48.850;8.924;2023-04-08T04:42:35;97085.13;;;20.90;50.67
10135;BME280;5107;48.850;8.924;2023-04-08T04:45:01;97086.97;;;20.89;50.97
10135;BME280;5107;48.850;8.924;2023-04-08T04:47:27;97089.66;;;20.89;51.05
10135;BME280;5107;48.850;8.924;2023-04-08T04:49:53;97082.66;;;20.88;50.95
10135;BME280;5107;48.850;8.924;2023-04-08T04:52:19;97087.63;;;20.84;51.11
10135;BME280;5107;48.850;8.924;2023-04-08T04:54:44;97086.59;;;20.86;51.38
10135;BME280;5107;48.850;8.924;2023-04-08T04:57:10;97084.53;;;20.88;51.18
10135;BME280;5107;48.850;8.924;2023-04-08T04:59:36;97093.59;;;20.87;51.32
10135;BME280;5107;48.850;8.924;2023-04-08T05:02:02;97094.41;;;20.87;51.33
10135;BME280;5107;48.850;8.924;2023-04-08T05:04:28;97089.88;;;20.88;51.48
10135;BME280;5107;48.850;8.924;2023-04-08T05:06:54;97102.44;;;20.87;51.48
10135;BME280;5107;48.850;8.924;2023-04-08T05:09:20;97103.47;;;20.86;51.83
10135;BME280;5107;48.850;8.924;2023-04-08T05:11:45;97099.97;;;20.86;51.59
10135;BME280;5107;48.850;8.924;2023-04-08T05:14:11;97097.31;;;20.86;52.03
10135;BME280;5107;48.850;8.924;2023-04-08T05:16:37;97104.28;;;20.87;51.53
10135;BME280;5107;48.850;8.924;2023-04-08T05:19:03;97106.97;;;20.87;51.70
10135;BME280;5107;48.850;8.924;2023-04-08T05:21:29;97112.31;;;20.87;51.77
10135;BME280;5107;48.850;8.924;2023-04-08T05:23:55;97110.91;;;20.84;51.96
10135;BME280;5107;48.850;8.924;2023-04-08T05:26:21;97115.00;;;20.87;51.70
10135;BME280;5107;48.850;8.924;2023-04-08T05:28:48;97107.19;;;20.85;51.67
10135;BME280;5107;48.850;8.924;2023-04-08T05:31:18;97115.47;;;20.83;52.05
10135;BME280;5107;48.850;8.924;2023-04-08T05:33:44;97111.50;;;20.86;51.80
10135;BME280;5107;48.850;8.924;2023-04-08T05:36:11;97111.72;;;20.84;52.20
10135;BME280;5107;48.850;8.924;2023-04-08T05:38:38;97107.19;;;20.85;51.88
10135;BME280;5107;48.850;8.924;2023-04-08T05:41:04;97119.75;;;20.84;52.08
10135;BME280;5107;48.850;8.924;2023-04-08T05:43:32;97112.31;;;20.87;51.92
10135;BME280;5107;48.850;8.924;2023-04-08T05:45:58;97120.56;;;20.85;52.15
10135;BME280;5107;48.850;8.924;2023-04-08T05:48:24;97123.25;;;20.85;51.92
10135;BME280;5107;48.850;8.924;2023-04-08T05:50:49;97127.56;;;20.86;52.21
10135;BME280;5107;48.850;8.924;2023-04-08T05:53:16;97129.78;;;20.89;51.91
10135;BME280;5107;48.850;8.924;2023-04-08T05:55:41;97132.91;;;20.86;51.84
10135;BME280;5107;48.850;8.924;2023-04-08T05:58:07;97135.38;;;20.88;51.75
10135;BME280;5107;48.850;8.924;2023-04-08T06:00:33;97133.72;;;20.87;51.88
10135;BME280;5107;48.850;8.924;2023-04-08T06:02:59;97137.66;;;20.84;51.88
10135;BME280;5107;48.850;8.924;2023-04-08T06:05:25;97137.66;;;20.84;51.94
10135;BME280;5107;48.850;8.924;2023-04-08T06:07:51;97145.47;;;20.86;51.93
10135;BME280;5107;48.850;8.924;2023-04-08T06:10:17;97143.25;;;20.82;51.83
10135;BME280;5107;48.850;8.924;2023-04-08T06:12:42;97147.78;;;20.82;53.53
10135;BME280;5107;48.850;8.924;2023-04-08T06:15:09;97142.78;;;20.86;52.64
10135;BME280;5107;48.850;8.924;2023-04-08T06:17:36;97152.03;;;20.90;52.19
10135;BME280;5107;48.850;8.924;2023-04-08T06:20:03;97148.75;;;20.88;51.87
10135;BME280;5107;48.850;8.924;2023-04-08T06:22:29;97146.28;;;20.86;51.93
10135;BME280;5107;48.850;8.924;2023-04-08T06:24:55;97148.75;;;20.88;51.99
10135;BME280;5107;48.850;8.924;2023-04-08T06:27:21;97157.81;;;20.87;52.20
10135;BME280;5107;48.850;8.924;2023-04-08T06:29:46;97160.13;;;20.83;52.36
10135;BME280;5107;48.850;8.924;2023-04-08T06:32:13;97167.09;;;20.84;52.90
10135;BME280;5107;48.850;8.924;2023-04-08T06:34:39;97167.09;;;20.84;53.23
10135;BME280;5107;48.850;8.924;2023-04-08T06:37:05;97172.22;;;20.86;52.98
10135;BME280;5107;48.850;8.924;2023-04-08T06:39:31;97171.41;;;20.85;53.15
10135;BME280;5107;48.850;8.924;2023-04-08T06:41:57;97177.34;;;20.87;53.54
10135;BME280;5107;48.850;8.924;2023-04-08T06:44:23;97175.50;;;20.88;53.34
10135;BME280;5107;48.850;8.924;2023-04-08T06:46:49;97171.41;;;20.85;53.30
10135;BME280;5107;48.850;8.924;2023-04-08T06:49:15;97175.94;;;20.84;53.42
10135;BME280;5107;48.850;8.924;2023-04-08T06:51:41;97172.44;;;20.84;53.19
10135;BME280;5107;48.850;8.924;2023-04-08T06:54:07;97180.47;;;20.84;53.13
10135;BME280;5107;48.850;8.924;2023-04-08T06:56:35;97170.59;;;20.84;53.34
10135;BME280;5107;48.850;8.924;2023-04-08T06:59:01;97175.94;;;20.84;53.43
10135;BME280;5107;48.850;8.924;2023-04-08T07:01:27;97173.25;;;20.84;53.25
10135;BME280;5107;48.850;8.924;2023-04-08T07:03:53;97180.63;;;20.89;53.41
10135;BME280;5107;48.850;8.924;2023-04-08T07:06:19;97177.97;;;20.89;53.08
10135;BME280;5107;48.850;8.924;2023-04-08T07:08:45;97184.13;;;20.90;53.10
10135;BME280;5107;48.850;8.924;2023-04-08T07:11:11;97184.13;;;20.90;53.44
10135;BME280;5107;48.850;8.924;2023-04-08T07:13:36;97188.66;;;20.89;53.39
10135;BME280;5107;48.850;8.924;2023-04-08T07:16:02;97188.66;;;20.89;53.41
10135;BME280;5107;48.850;8.924;2023-04-08T07:18:29;97189.28;;;20.91;53.38
10135;BME280;5107;48.850;8.924;2023-04-08T07:20:55;97189.28;;;20.91;53.63
10135;BME280;5107;48.850;8.924;2023-04-08T07:23:22;97200.78;;;20.92;53.57
10135;BME280;5107;48.850;8.924;2023-04-08T07:25:48;97194.25;;;20.88;53.74
10135;BME280;5107;48.850;8.924;2023-04-08T07:28:14;97198.34;;;20.90;53.81
10135;BME280;5107;48.850;8.924;2023-04-08T07:32:15;97198.88;;;15.45;52.78
10135;BME280;5107;48.850;8.924;2023-04-08T07:34:42;97178.03;;;14.33;56.27
10135;BME280;5107;48.850;8.924;2023-04-08T07:37:08;97185.38;;;13.25;58.90
10135;BME280;5107;48.850;8.924;2023-04-08T07:39:34;97185.34;;;12.47;62.23
10135;BME280;5107;48.850;8.924;2023-04-08T07:42:00;97185.28;;;11.67;65.72
10135;BME280;5107;48.850;8.924;2023-04-08T07:44:27;97185.34;;;10.93;69.04
10135;BME280;5107;48.850;8.924;2023-04-08T07:46:53;97186.00;;;10.53;71.47
10135;BME280;5107;48.850;8.924;2023-04-08T07:49:19;97189.34;;;10.29;72.25
10135;BME280;5107;48.850;8.924;2023-04-08T07:51:45;97191.91;;;10.21;72.95
10135;BME280;5107;48.850;8.924;2023-04-08T07:54:11;97192.19;;;9.92;73.67
10135;BME280;5107;48.850;8.924;2023-04-08T07:56:42;97196.09;;;9.88;74.57
10135;BME280;5107;48.850;8.924;2023-04-08T07:59:09;97197.03;;;9.79;75.06
10135;BME280;5107;48.850;8.924;2023-04-08T08:01:36;97195.53;;;9.59;75.53
10135;BME280;5107;48.850;8.924;2023-04-08T08:04:02;97192.69;;;9.70;76.50
10135;BME280;5107;48.850;8.924;2023-04-08T08:06:29;97196.22;;;9.78;76.75
10135;BME280;5107;48.850;8.924;2023-04-08T08:08:58;97201.06;;;9.91;76.42
10135;BME280;5107;48.850;8.924;2023-04-08T08:11:25;97196.53;;;10.01;75.46
10135;BME280;5107;48.850;8.924;2023-04-08T08:13:54;97202.22;;;9.97;74.26
10135;BME280;5107;48.850;8.924;2023-04-08T08:16:20;97206.25;;;9.83;74.62
10135;BME280;5107;48.850;8.924;2023-04-08T08:18:46;97207.75;;;9.85;73.89
10135;BME280;5107;48.850;8.924;2023-04-08T08:21:12;97205.69;;;9.97;75.00
10135;BME280;5107;48.850;8.924;2023-04-08T08:23:38;97211.16;;;9.78;75.16
10135;BME280;5107;48.850;8.924;2023-04-08T08:26:08;97215.56;;;9.95;74.67
10135;BME280;5107;48.850;8.924;2023-04-08T08:28:35;97214.88;;;9.93;75.32
10135;BME280;5107;48.850;8.924;2023-04-08T08:31:01;97218.88;;;10.23;75.03
10135;BME280;5107;48.850;8.924;2023-04-08T08:33:28;97213.91;;;10.38;74.82
10135;BME280;5107;48.850;8.924;2023-04-08T08:35:54;97222.56;;;10.64;73.57
10135;BME280;5107;48.850;8.924;2023-04-08T08:38:23;97222.03;;;10.94;73.41
10135;BME280;5107;48.850;8.924;2023-04-08T08:40:59;97219.38;;;10.86;71.11
10135;BME280;5107;48.850;8.924;2023-04-08T08:43:26;97228.69;;;11.23;71.36
10135;BME280;5107;48.850;8.924;2023-04-08T08:45:53;97221.63;;;11.23;69.14
10135;BME280;5107;48.850;8.924;2023-04-08T08:48:19;97229.75;;;11.38;69.54
10135;BME280;5107;48.850;8.924;2023-04-08T08:50:46;97232.81;;;11.17;69.13
10135;BME280;5107;48.850;8.924;2023-04-08T08:53:12;97231.34;;;11.31;68.18
10135;BME280;5107;48.850;8.924;2023-04-08T08:55:38;97236.47;;;11.40;67.79
10135;BME280;5107;48.850;8.924;2023-04-08T08:58:06;97235.69;;;11.72;67.72
10135;BME280;5107;48.850;8.924;2023-04-08T09:00:37;97237.38;;;12.22;65.33
10135;BME280;5107;48.850;8.924;2023-04-08T09:08:31;97234.44;;;12.80;61.78
10135;BME280;5107;48.850;8.924;2023-04-08T09:11:16;97225.06;;;13.09;59.79
10135;BME280;5107;48.850;8.924;2023-04-08T09:13:44;97229.69;;;13.07;61.36
10135;BME280;5107;48.850;8.924;2023-04-08T09:16:14;97235.69;;;13.01;61.45
10135;BME280;5107;48.850;8.924;2023-04-08T09:18:43;97233.16;;;13.07;61.54
10135;BME280;5107;48.850;8.924;2023-04-08T09:21:11;97243.50;;;13.56;59.61
10135;BME280;5107;48.850;8.924;2023-04-08T09:23:44;97238.75;;;13.97;57.40
10135;BME280;5107;48.850;8.924;2023-04-08T09:26:19;97234.09;;;13.99;57.04
10135;BME280;5107;48.850;8.924;2023-04-08T09:29:00;97239.50;;;13.83;56.85
10135;BME280;5107;48.850;8.924;2023-04-08T09:31:31;97238.63;;;13.45;57.68
10135;BME280;5107;48.850;8.924;2023-04-08T09:34:00;97237.47;;;13.47;59.32
10135;BME280;5107;48.850;8.924;2023-04-08T09:36:29;97238.84;;;13.89;57.84
10135;BME280;5107;48.850;8.924;2023-04-08T09:38:55;97241.66;;;13.87;57.51
10135;BME280;5107;48.850;8.924;2023-04-08T09:41:22;97237.59;;;13.54;56.75
10135;BME280;5107;48.850;8.924;2023-04-08T09:43:54;97233.13;;;13.77;56.09
10135;BME280;5107;48.850;8.924;2023-04-08T09:46:28;97235.75;;;13.23;57.77
10135;BME280;5107;48.850;8.924;2023-04-08T09:49:26;97237.44;;;12.77;59.33
10135;BME280;5107;48.850;8.924;2023-04-08T09:52:10;97240.72;;;13.26;59.07
10135;BME280;5107;48.850;8.924;2023-04-08T10:00:41;97243.22;;;13.20;56.65
10135;BME280;5107;48.850;8.924;2023-04-08T10:03:37;97236.31;;;13.11;56.64
10135;BME280;5107;48.850;8.924;2023-04-08T10:06:05;97243.00;;;12.82;57.74
10135;BME280;5107;48.850;8.924;2023-04-08T10:08:33;97241.75;;;13.17;58.08
10135;BME280;5107;48.850;8.924;2023-04-08T10:11:00;97239.94;;;13.10;55.94
10135;BME280;5107;48.850;8.924;2023-04-08T10:13:27;97239.72;;;12.80;55.58
10135;BME280;5107;48.850;8.924;2023-04-08T10:18:47;97244.03;;;12.73;58.89
10135;BME280;5107;48.850;8.924;2023-04-08T10:23:59;97245.97;;;12.87;57.55
10135;BME280;5107;48.850;8.924;2023-04-08T10:26:32;97241.81;;;12.93;56.45
10135;BME280;5107;48.850;8.924;2023-04-08T10:31:52;97245.22;;;12.63;58.03
10135;BME280;5107;48.850;8.924;2023-04-08T10:34:20;97244.59;;;12.44;57.71
10135;BME280;5107;48.850;8.924;2023-04-08T10:36:47;97246.72;;;12.49;57.67
10135;BME280;5107;48.850;8.924;2023-04-08T10:39:15;97244.25;;;12.47;58.38
10135;BME280;5107;48.850;8.924;2023-04-08T10:41:45;97242.25;;;12.58;54.93
10135;BME280;5107;48.850;8.924;2023-04-08T10:44:30;97243.28;;;12.40;56.37
10135;BME280;5107;48.850;8.924;2023-04-08T10:46:56;97244.63;;;12.28;55.35
10135;BME280;5107;48.850;8.924;2023-04-08T10:49:22;97237.91;;;12.01;56.22
10135;BME280;5107;48.850;8.924;2023-04-08T10:51:56;97242.84;;;11.96;56.14
10135;BME280;5107;48.850;8.924;2023-04-08T10:54:23;97246.78;;;12.00;55.30
10135;BME280;5107;48.850;8.924;2023-04-08T10:56:50;97244.81;;;12.10;54.64
10135;BME280;5107;48.850;8.924;2023-04-08T10:59:30;97242.19;;;12.10;55.06
10135;BME280;5107;48.850;8.924;2023-04-08T11:01:57;97243.31;;;12.08;54.27
10135;BME280;5107;48.850;8.924;2023-04-08T11:04:25;97243.16;;;12.01;55.34
10135;BME280;5107;48.850;8.924;2023-04-08T11:06:52;97236.41;;;12.07;55.02
10135;BME280;5107;48.850;8.924;2023-04-08T11:09:18;97243.66;;;11.89;54.97
10135;BME280;5107;48.850;8.924;2023-04-08T11:11:45;97238.50;;;11.63;54.91
10135;BME280;5107;48.850;8.924;2023-04-08T11:14:12;97238.72;;;11.77;55.48
10135;BME280;5107;48.850;8.924;2023-04-08T11:16:42;97237.50;;;11.64;52.84
10135;BME280;5107;48.850;8.924;2023-04-08T11:19:08;97236.09;;;11.77;54.17
10135;BME280;5107;48.850;8.924;2023-04-08T11:21:35;97239.03;;;11.83;52.58
10135;BME280;5107;48.850;8.924;2023-04-08T11:24:09;97242.66;;;11.90;53.37
10135;BME280;5107;48.850;8.924;2023-04-08T11:26:37;97240.38;;;11.95;52.32
10135;BME280;5107;48.850;8.924;2023-04-08T11:29:04;97238.88;;;11.92;52.93
10135;BME280;5107;48.850;8.924;2023-04-08T11:31:31;97241.69;;;11.99;52.43
10135;BME280;5107;48.850;8.924;2023-04-08T11:33:58;97242.19;;;12.02;53.25
10135;BME280;5107;48.850;8.924;2023-04-08T11:36:24;97236.06;;;12.10;53.11
10135;BME280;5107;48.850;8.924;2023-04-08T11:38:53;97244.47;;;12.05;53.47
10135;BME280;5107;48.850;8.924;2023-04-08T11:41:20;97239.19;;;12.05;53.11
10135;BME280;5107;48.850;8.924;2023-04-08T11:43:54;97238.88;;;12.16;53.87
10135;BME280;5107;48.850;8.924;2023-04-08T11:46:21;97236.38;;;12.15;53.14
10135;BME280;5107;48.850;8.924;2023-04-08T11:49:02;97229.97;;;11.93;54.09
10135;BME280;5107;48.850;8.924;2023-04-08T11:51:29;97225.84;;;11.99;54.28
10135;BME280;5107;48.850;8.924;2023-04-08T11:53:55;97229.16;;;11.93;55.17
10135;BME280;5107;48.850;8.924;2023-04-08T11:56:22;97231.63;;;11.78;55.74
10135;BME280;5107;48.850;8.924;2023-04-08T11:58:50;97232.41;;;11.54;55.52
10135;BME280;5107;48.850;8.924;2023-04-08T12:01:17;97220.53;;;11.58;55.95
10135;BME280;5107;48.850;8.924;2023-04-08T12:03:56;97227.63;;;11.58;56.58
10135;BME280;5107;48.850;8.924;2023-04-08T12:06:23;97232.72;;;11.43;56.41
10135;BME280;5107;48.850;8.924;2023-04-08T12:08:50;97237.16;;;11.51;56.99
10135;BME280;5107;48.850;8.924;2023-04-08T12:11:16;97238.00;;;11.59;57.56
10135;BME280;5107;48.850;8.924;2023-04-08T12:13:42;97239.00;;;11.66;58.02
10135;BME280;5107;48.850;8.924;2023-04-08T12:16:08;97231.88;;;11.43;57.75
10135;BME280;5107;48.850;8.924;2023-04-08T12:18:34;97237.31;;;11.41;57.20
10135;BME280;5107;48.850;8.924;2023-04-08T12:21:01;97241.59;;;11.42;58.25
10135;BME280;5107;48.850;8.924;2023-04-08T12:23:27;97247.19;;;11.39;58.19
10135;BME280;5107;48.850;8.924;2023-04-08T12:25:53;97248.84;;;11.40;58.77
10135;BME280;5107;48.850;8.924;2023-04-08T12:28:19;97244.25;;;11.50;59.47
10135;BME280;5107;48.850;8.924;2023-04-08T12:30:46;97251.00;;;11.45;57.74
10135;BME280;5107;48.850;8.924;2023-04-08T12:33:12;97242.94;;;11.54;58.39
10135;BME280;5107;48.850;8.924;2023-04-08T12:35:38;97237.84;;;11.69;56.76
10135;BME280;5107;48.850;8.924;2023-04-08T12:38:04;97237.19;;;11.67;56.60
10135;BME280;5107;48.850;8.924;2023-04-08T12:40:31;97241.16;;;11.63;57.00
10135;BME280;5107;48.850;8.924;2023-04-08T12:42:57;97239.31;;;11.55;57.03
10135;BME280;5107;48.850;8.924;2023-04-08T12:45:23;97242.97;;;11.70;57.39
10135;BME280;5107;48.850;8.924;2023-04-08T12:47:49;97241.34;;;11.77;57.22
10135;BME280;5107;48.850;8.924;2023-04-08T12:50:15;97237.06;;;11.76;57.06
10135;BME280;5107;48.850;8.924;2023-04-08T12:52:41;97239.69;;;11.76;56.58
10135;BME280;5107;48.850;8.924;2023-04-08T12:55:08;97241.84;;;11.81;55.21
10135;BME280;5107;48.850;8.924;2023-04-08T12:57:34;97237.72;;;11.78;55.51
10135;BME280;5107;48.850;8.924;2023-04-08T13:00:00;97242.44;;;11.59;55.89
10135;BME280;5107;48.850;8.924;2023-04-08T13:02:26;97237.19;;;11.67;55.90
10135;BME280;5107;48.850;8.924;2023-04-08T13:04:52;97230.66;;;11.79;56.27
10135;BME280;5107;48.850;8.924;2023-04-08T13:07:20;97235.09;;;12.03;54.93
10135;BME280;5107;48.850;8.924;2023-04-08T13:09:46;97234.44;;;12.09;55.43
10135;BME280;5107;48.850;8.924;2023-04-08T13:12:12;97236.38;;;12.23;55.00
10135;BME280;5107;48.850;8.924;2023-04-08T13:14:39;97230.13;;;12.08;53.96
10135;BME280;5107;48.850;8.924;2023-04-08T13:17:05;97231.63;;;11.94;54.72
10135;BME280;5107;48.850;8.924;2023-04-08T13:19:31;97233.41;;;11.69;54.70
10135;BME280;5107;48.850;8.924;2023-04-08T13:21:58;97232.56;;;11.53;55.09
10135;BME280;5107;48.850;8.924;2023-04-08T13:24:24;97232.56;;;11.53;55.94
10135;BME280;5107;48.850;8.924;2023-04-08T13:26:50;97224.31;;;11.56;56.82
10135;BME280;5107;48.850;8.924;2023-04-08T13:29:17;97228.75;;;11.47;55.58
10135;BME280;5107;48.850;8.924;2023-04-08T13:31:43;97233.53;;;11.35;55.42
10135;BME280;5107;48.850;8.924;2023-04-08T13:34:09;97234.34;;;11.28;56.43
10135;BME280;5107;48.850;8.924;2023-04-08T13:36:35;97230.34;;;11.24;57.46
10135;BME280;5107;48.850;8.924;2023-04-08T13:39:01;97236.97;;;11.36;57.21
10135;BME280;5107;48.850;8.924;2023-04-08T13:41:27;97230.38;;;11.32;56.97